createdAt,value
2022-08-09T00:00:04.781Z,19.81
2022-08-09T00:06:12.151Z,19.80
2022-08-09T00:10:04.047Z,19.79
2022-08-09T00:15:06.675Z,19.78
2022-08-09T00:20:07.093Z,19.76
2022-08-09T00:25:10.154Z,19.73
2022-08-09T00:30:24.501Z,19.71
2022-08-09T00:35:13.384Z,19.68
2022-08-09T00:40:17.393Z,19.62
2022-08-09T00:45:16.518Z,19.58
2022-08-09T00:50:18.031Z,19.57
2022-08-09T00:55:54.230Z,19.56
2022-08-09T01:00:21.803Z,19.53
2022-08-09T01:05:22.413Z,19.49
2022-08-09T01:10:25.864Z,19.45
2022-08-09T01:15:26.159Z,19.38
2022-08-09T01:20:26.150Z,19.31
2022-08-09T01:25:27.110Z,19.25
2022-08-09T01:30:33.714Z,19.20
2022-08-09T01:35:38.337Z,19.16
2022-08-09T01:40:32.045Z,19.13
2022-08-09T01:45:33.165Z,19.07
2022-08-09T01:50:37.003Z,19.00
2022-08-09T01:55:37.241Z,18.94
2022-08-09T02:00:39.135Z,18.90
2022-08-09T02:06:04.110Z,18.84
2022-08-09T02:10:42.876Z,18.78
2022-08-09T02:15:49.379Z,18.73
2022-08-09T02:20:45.073Z,18.68
2022-08-09T02:25:52.571Z,18.62
2022-08-09T02:30:49.079Z,18.58
2022-08-09T02:36:03.784Z,18.54
2022-08-09T02:40:53.176Z,18.51
2022-08-09T02:45:55.176Z,18.48
2022-08-09T02:50:56.601Z,18.46
2022-08-09T02:55:58.597Z,18.44
2022-08-09T03:00:59.093Z,18.41
2022-08-09T03:06:00.254Z,18.38
2022-08-09T03:11:00.277Z,18.36
2022-08-09T03:16:05.825Z,18.32
2022-08-09T03:21:02.526Z,18.28
2022-08-09T03:26:04.727Z,18.25
2022-08-09T03:31:04.305Z,18.21
2022-08-09T03:36:16.503Z,18.15
2022-08-09T03:41:09.267Z,18.09
2022-08-09T03:46:20.171Z,18.05
2022-08-09T03:51:57.642Z,18.04
2022-08-09T03:56:13.276Z,18.05
2022-08-09T04:01:14.232Z,18.05
2022-08-09T04:06:15.254Z,18.05
2022-08-09T04:11:17.231Z,18.02
2022-08-09T04:16:21.241Z,18.00
2022-08-09T04:21:19.943Z,17.98
2022-08-09T04:26:20.206Z,17.96
2022-08-09T04:31:22.187Z,17.95
2022-08-09T04:36:24.993Z,17.95
2022-08-09T04:41:32.299Z,17.98
2022-08-09T04:46:37.657Z,18.03
2022-08-09T04:51:29.180Z,18.08
2022-08-09T04:56:31.278Z,18.12
2022-08-09T05:01:31.212Z,18.15
2022-08-09T05:06:35.723Z,18.21
2022-08-09T05:11:36.049Z,18.29
2022-08-09T05:16:43.437Z,18.39
2022-08-09T05:21:47.409Z,18.52
2022-08-09T05:26:45.719Z,18.70
2022-08-09T05:31:46.466Z,18.93
2022-08-09T05:36:47.007Z,19.17
2022-08-09T05:41:46.351Z,19.40
2022-08-09T05:46:46.315Z,19.62
2022-08-09T05:51:46.708Z,19.82
2022-08-09T05:56:55.404Z,19.96
2022-08-09T06:01:49.434Z,20.08
2022-08-09T06:06:50.329Z,20.33
2022-08-09T06:11:57.700Z,20.87
2022-08-09T06:16:54.976Z,22.00
2022-08-09T06:21:58.620Z,23.83
2022-08-09T06:26:59.369Z,25.78
2022-08-09T06:32:17.210Z,27.79
2022-08-09T06:37:01.369Z,29.90
2022-08-09T06:42:09.044Z,31.80
2022-08-09T06:47:05.403Z,33.54
2022-08-09T06:52:07.899Z,35.34
2022-08-09T06:57:08.486Z,37.04
2022-08-09T07:02:08.374Z,38.42
2022-08-09T07:07:11.873Z,39.51
2022-08-09T07:12:17.606Z,40.79
2022-08-09T07:17:13.833Z,42.04
2022-08-09T07:22:13.332Z,42.94
2022-08-09T07:27:33.309Z,43.91
2022-08-09T07:32:16.422Z,44.75
2022-08-09T07:37:17.687Z,45.56
2022-08-09T07:42:19.358Z,46.70
2022-08-09T07:47:19.444Z,47.88
2022-08-09T07:52:21.364Z,48.68
2022-08-09T07:57:23.454Z,48.85
2022-08-09T08:02:25.529Z,48.92
2022-08-09T08:08:43.258Z,49.25
2022-08-09T08:12:29.614Z,49.63
2022-08-09T08:17:51.965Z,49.95
2022-08-09T08:22:32.723Z,50.17
2022-08-09T08:27:40.609Z,50.25
2022-08-09T08:32:35.649Z,50.25
2022-08-09T08:37:40.816Z,50.08
2022-08-09T08:42:39.644Z,49.78
2022-08-09T08:47:44.818Z,49.51
2022-08-09T08:52:57.474Z,49.26
2022-08-09T08:57:57.182Z,48.85
2022-08-09T09:02:50.138Z,48.45
2022-08-09T09:07:50.434Z,48.33
2022-08-09T09:12:50.536Z,48.49
2022-08-09T09:17:53.047Z,48.53
2022-08-09T09:22:53.450Z,48.36
2022-08-09T09:28:04.249Z,48.35
2022-08-09T09:32:57.528Z,48.44
2022-08-09T09:37:57.554Z,48.48
2022-08-09T09:42:58.531Z,48.36
2022-08-09T09:47:59.738Z,47.97
2022-08-09T09:52:59.715Z,47.34
2022-08-09T09:58:00.738Z,46.94
2022-08-09T10:03:09.172Z,46.59
2022-08-09T10:08:26.965Z,45.82
2022-08-09T10:13:05.593Z,45.04
2022-08-09T10:18:07.551Z,44.08
2022-08-09T10:23:07.610Z,42.93
2022-08-09T10:28:08.561Z,41.79
2022-08-09T10:33:09.976Z,40.54
2022-08-09T10:38:34.085Z,39.17
2022-08-09T10:43:13.581Z,37.70
2022-08-09T10:48:30.172Z,36.51
2022-08-09T10:53:16.637Z,35.80
2022-08-09T10:58:25.499Z,35.38
2022-08-09T11:03:27.766Z,34.97
2022-08-09T11:08:30.076Z,34.37
2022-08-09T11:13:50.132Z,33.68
2022-08-09T11:18:26.636Z,33.05
2022-08-09T11:23:29.923Z,32.48
2022-08-09T11:28:33.886Z,31.96
2022-08-09T11:33:30.628Z,31.41
2022-08-09T11:38:33.195Z,30.90
2022-08-09T11:43:33.130Z,30.52
2022-08-09T11:48:33.577Z,30.23
2022-08-09T11:54:00.643Z,29.96
2022-08-09T11:58:38.207Z,29.73
2022-08-09T12:03:56.977Z,29.50
2022-08-09T12:08:41.629Z,29.33
2022-08-09T12:14:11.103Z,29.19
2022-08-09T12:18:49.021Z,28.99
2022-08-09T12:24:08.516Z,28.72
2022-08-09T12:29:13.167Z,28.50
2022-08-09T12:33:59.197Z,28.37
2022-08-09T12:38:55.672Z,28.30
2022-08-09T12:44:06.739Z,28.27
2022-08-09T12:48:57.712Z,28.26
2022-08-09T12:53:58.376Z,28.25
2022-08-09T12:58:58.664Z,28.25
2022-08-09T13:03:59.364Z,28.23
2022-08-09T13:09:01.047Z,28.22
2022-08-09T13:14:41.065Z,28.15
2022-08-09T13:19:03.783Z,28.07
2022-08-09T13:24:44.877Z,28.13
2022-08-09T13:29:09.850Z,28.21
2022-08-09T13:34:09.698Z,28.20
2022-08-09T13:41:46.432Z,28.14
2022-08-09T13:44:16.771Z,28.10
2022-08-09T13:49:18.344Z,28.20
2022-08-09T13:54:17.693Z,28.33
2022-08-09T13:59:19.673Z,28.39
2022-08-09T14:04:23.995Z,28.47
2022-08-09T14:09:23.736Z,28.59
2022-08-09T14:14:27.593Z,28.69
2022-08-09T14:19:25.813Z,28.74
2022-08-09T14:24:54.212Z,28.78
2022-08-09T14:30:36.639Z,28.81
2022-08-09T14:34:55.587Z,28.89
2022-08-09T14:39:52.845Z,28.94
2022-08-09T14:44:59.427Z,28.92
2022-08-09T14:50:02.149Z,28.88
2022-08-09T14:54:57.729Z,28.89
2022-08-09T14:59:57.797Z,28.93
2022-08-09T15:04:58.750Z,28.95
2022-08-09T15:10:07.482Z,28.96
2022-08-09T15:15:00.778Z,28.98
2022-08-09T15:20:02.732Z,29.02
2022-08-09T15:25:03.953Z,29.03
2022-08-09T15:30:59.470Z,29.02
2022-08-09T15:35:18.161Z,29.00
2022-08-09T15:40:11.752Z,28.98
2022-08-09T15:45:09.955Z,28.96
2022-08-09T15:50:09.888Z,28.93
2022-08-09T15:55:11.995Z,28.90
2022-08-09T16:00:14.843Z,28.89
2022-08-09T16:05:15.864Z,28.87
2022-08-09T16:10:17.020Z,28.84
2022-08-09T16:16:09.821Z,28.84
2022-08-09T16:20:19.915Z,28.84
2022-08-09T16:25:37.050Z,28.81
2022-08-09T16:30:28.537Z,28.79
2022-08-09T16:35:56.035Z,28.76
2022-08-09T16:40:48.815Z,28.73
2022-08-09T16:45:53.670Z,28.71
2022-08-09T16:50:59.624Z,28.68
2022-08-09T16:55:59.640Z,28.62
2022-08-09T17:00:55.248Z,28.56
2022-08-09T17:06:03.508Z,28.48
2022-08-09T17:10:56.856Z,28.41
2022-08-09T17:15:58.928Z,28.34
2022-08-09T17:21:00.035Z,28.30
2022-08-09T17:26:02.021Z,28.25
2022-08-09T17:31:01.978Z,28.18
2022-08-09T17:36:01.901Z,28.10
2022-08-09T17:41:02.165Z,28.01
2022-08-09T17:46:06.610Z,27.90
2022-08-09T17:51:09.637Z,27.77
2022-08-09T17:56:08.295Z,27.64
2022-08-09T18:01:08.981Z,27.51
2022-08-09T18:06:14.798Z,27.41
2022-08-09T18:11:10.947Z,27.33
2022-08-09T18:16:12.899Z,27.24
2022-08-09T18:21:23.337Z,27.11
2022-08-09T18:26:14.996Z,26.98
2022-08-09T18:31:14.997Z,26.86
2022-08-09T18:36:25.906Z,26.76
2022-08-09T18:41:18.935Z,26.66
2022-08-09T18:46:50.300Z,26.51
2022-08-09T18:51:38.157Z,26.38
2022-08-09T18:56:27.717Z,26.24
2022-08-09T19:01:27.158Z,26.10
2022-08-09T19:06:27.870Z,25.94
2022-08-09T19:11:35.447Z,25.77
2022-08-09T19:16:36.605Z,25.60
2022-08-09T19:21:47.753Z,25.43
2022-08-09T19:26:35.589Z,25.28
2022-08-09T19:31:45.306Z,25.15
2022-08-09T19:36:37.955Z,25.02
2022-08-09T19:41:42.391Z,24.90
2022-08-09T19:46:50.080Z,24.80
2022-08-09T19:51:48.041Z,24.70
2022-08-09T19:56:49.143Z,24.60
2022-08-09T20:01:52.278Z,24.52
2022-08-09T20:06:51.082Z,24.44
2022-08-09T20:11:53.161Z,24.35
2022-08-09T20:16:54.438Z,24.30
2022-08-09T20:21:57.496Z,24.25
2022-08-09T20:26:57.211Z,24.17
2022-08-09T20:32:32.855Z,24.07
2022-08-09T20:37:00.099Z,23.98
2022-08-09T20:42:00.109Z,23.89
2022-08-09T20:46:59.992Z,23.81
2022-08-09T20:52:02.114Z,23.75
2022-08-09T20:57:01.988Z,23.69
2022-08-09T21:02:02.189Z,23.62
2022-08-09T21:07:11.255Z,23.56
2022-08-09T21:18:11.893Z,23.40
2022-08-09T21:22:35.515Z,23.36
2022-08-09T21:27:52.377Z,23.32
2022-08-09T21:32:18.804Z,23.29
2022-08-09T21:37:18.643Z,23.30
2022-08-09T21:42:18.061Z,23.32
2022-08-09T21:47:20.093Z,23.30
2022-08-09T21:52:20.517Z,23.23
2022-08-09T21:57:25.200Z,23.16
2022-08-09T22:02:36.295Z,23.08
2022-08-09T22:07:41.720Z,22.99
2022-08-09T22:12:30.776Z,22.93
2022-08-09T22:17:31.888Z,22.88
2022-08-09T22:22:33.843Z,22.84
2022-08-09T22:27:36.163Z,22.81
2022-08-09T22:32:36.200Z,22.76
2022-08-09T22:37:40.255Z,22.72
2022-08-09T22:42:39.086Z,22.68
2022-08-09T22:48:12.247Z,22.63
2022-08-09T22:52:42.158Z,22.56
2022-08-09T22:57:44.387Z,22.49
2022-08-09T23:02:46.873Z,22.42
2022-08-09T23:08:21.885Z,22.34
2022-08-09T23:13:12.817Z,22.27
2022-08-09T23:18:10.216Z,22.20
2022-08-09T23:23:10.136Z,22.12
2022-08-09T23:28:15.206Z,22.04
2022-08-09T23:33:12.203Z,21.95
2022-08-09T23:38:12.256Z,21.86
2022-08-09T23:43:12.164Z,21.77
2022-08-09T23:48:12.164Z,21.66
2022-08-09T23:53:12.429Z,21.57
2022-08-09T23:58:25.893Z,21.51
